Time;durP1;ratioP1;P1;durP2;ratioP2;P2;SDS_P1;SDS_P2;PMS_P1;PMS_P2;Temp;Humidity;BMP_temperature;BMP_pressure;BME280_temperature;BME280_humidity;BME280_pressure;Samples;Min_cycle;Max_cycle;Signal;HPM_P1;HPM_P2
2024/03/23 00:01:30;;;;;;;;;;;;;;;16.96;47.72;101078.44;5041198;28;1981;-62
2024/03/23 00:03:56;;;;;;;;;;;;;;;16.23;48.32;101076.38;5044922;28;1207;-62
2024/03/23 00:06:22;;;;;;;;;;;;;;;15.81;48.13;101071.63;5041010;28;1286;-61
2024/03/23 00:08:48;;;;;;;;;;;;;;;15.94;47.58;101068.47;5038773;28;1218;-62
2024/03/23 00:11:14;;;;;;;;;;;;;;;16.47;48.02;101071.31;5061152;28;1254;-63
2024/03/23 00:13:40;;;;;;;;;;;;;;;15.86;48.23;101068.94;5065750;28;1144;-63
2024/03/23 00:16:06;;;;;;;;;;;;;;;15.77;47.08;101059.50;5063590;28;2523;-63
2024/03/23 00:18:32;;;;;;;;;;;;;;;15.53;46.71;101057.13;5065972;28;1214;-64
2024/03/23 00:21:00;;;;;;;;;;;;;;;17.09;46.83;101069.69;5063867;28;1902;-63
2024/03/23 00:23:26;;;;;;;;;;;;;;;16.08;48.46;101064.19;5078133;28;1054;-63
2024/03/23 00:25:52;;;;;;;;;;;;;;;15.71;48.17;101056.75;5070551;28;1129;-63
2024/03/23 00:28:18;;;;;;;;;;;;;;;16.80;47.70;101065.69;5058802;28;858;-63
2024/03/23 00:30:44;;;;;;;;;;;;;;;16.89;47.68;101058.63;5044899;28;1084;-63
2024/03/23 00:33:10;;;;;;;;;;;;;;;16.14;48.15;101065.03;5071021;28;1024;-64
2024/03/23 00:35:36;;;;;;;;;;;;;;;15.98;47.74;101050.41;5051373;28;1100;-63
2024/03/23 00:38:02;;;;;;;;;;;;;;;17.45;46.42;101056.03;5077205;28;1031;-63
2024/03/23 00:40:28;;;;;;;;;;;;;;;16.25;48.69;101057.72;5058822;28;1906;-63
2024/03/23 00:42:54;;;;;;;;;;;;;;;15.89;48.13;101050.06;5068708;28;1090;-62
2024/03/23 00:45:20;;;;;;;;;;;;;;;17.28;47.23;101052.72;5061977;28;2604;-63
2024/03/23 00:47:46;;;;;;;;;;;;;;;16.31;48.31;101053.09;5077393;28;1030;-62
2024/03/23 00:50:12;;;;;;;;;;;;;;;16.06;47.37;101047.16;5062552;28;1083;-62
2024/03/23 00:52:38;;;;;;;;;;;;;;;15.84;46.80;101046.47;5057337;28;1095;-63
2024/03/23 00:55:04;;;;;;;;;;;;;;;16.78;47.62;101046.75;5074080;28;1110;-62
2024/03/23 00:57:29;;;;;;;;;;;;;;;15.97;48.30;101037.75;5077093;28;1011;-63
2024/03/23 00:59:55;;;;;;;;;;;;;;;16.91;47.48;101048.19;5063483;28;1902;-64
2024/03/23 01:02:20;;;;;;;;;;;;;;;16.69;47.80;101040.09;5067188;28;1011;-60
2024/03/23 01:04:46;;;;;;;;;;;;;;;16.14;48.08;101037.59;5073221;28;1079;-62
2024/03/23 01:07:11;;;;;;;;;;;;;;;15.89;47.47;101038.25;5038843;28;1067;-62
2024/03/23 01:09:38;;;;;;;;;;;;;;;15.81;46.77;101036.00;5074483;28;1195;-65
2024/03/23 01:12:04;;;;;;;;;;;;;;;16.28;47.60;101037.16;5076628;28;1522;-64
2024/03/23 01:14:30;;;;;;;;;;;;;;;16.60;47.90;101026.88;5075255;28;1111;-63
2024/03/23 01:16:55;;;;;;;;;;;;;;;15.97;48.28;101032.28;5058654;28;2629;-61
2024/03/23 01:19:21;;;;;;;;;;;;;;;15.81;47.53;101034.09;5059794;28;1027;-63
2024/03/23 01:21:46;;;;;;;;;;;;;;;15.68;46.85;101029.84;5049729;28;1909;-63
2024/03/23 01:24:12;;;;;;;;;;;;;;;16.68;47.54;101036.53;5076002;28;1106;-64
2024/03/23 01:26:37;;;;;;;;;;;;;;;16.34;48.19;101030.59;5066245;28;1067;-64
2024/03/23 01:29:03;;;;;;;;;;;;;;;15.91;47.97;101030.59;5069933;28;1107;-63
2024/03/23 01:31:28;;;;;;;;;;;;;;;17.05;47.45;101024.59;5057311;28;984;-63
2024/03/23 01:33:54;;;;;;;;;;;;;;;16.39;48.05;101023.22;5045343;28;1203;-63
2024/03/23 01:36:19;;;;;;;;;;;;;;;15.99;47.71;101018.31;5076413;28;1110;-64
2024/03/23 01:38:45;;;;;;;;;;;;;;;16.67;47.83;101023.91;5074216;28;1023;-64
2024/03/23 01:41:11;;;;;;;;;;;;;;;16.03;48.02;101031.25;5066031;28;1976;-64
2024/03/23 01:43:36;;;;;;;;;;;;;;;15.87;47.28;101029.47;5056717;28;1008;-64
2024/03/23 01:46:02;;;;;;;;;;;;;;;15.69;46.53;101023.25;5067150;28;2726;-63
2024/03/23 01:48:27;;;;;;;;;;;;;;;16.13;47.01;101018.66;5076289;28;1059;-63
2024/03/23 01:50:53;;;;;;;;;;;;;;;16.35;48.14;101019.34;5075986;28;1062;-63
2024/03/23 01:53:21;;;;;;;;;;;;;;;15.87;47.79;101018.50;5072083;28;1063;-63
2024/03/23 01:55:47;;;;;;;;;;;;;;;15.63;47.28;101024.31;5066864;28;1115;-64
2024/03/23 01:58:13;;;;;;;;;;;;;;;16.42;47.68;101022.72;5031746;28;1005;-63
2024/03/23 02:00:38;;;;;;;;;;;;;;;16.49;47.79;101021.63;5054686;28;1906;-63
2024/03/23 02:03:21;;;;;;;;;;;;;;;16.80;47.74;101022.56;5068373;28;1206;-63
2024/03/23 02:05:46;;;;;;;;;;;;;;;18.00;45.61;101017.00;5069280;28;1087;-63
2024/03/23 02:08:12;;;;;;;;;;;;;;;16.64;47.86;101018.94;5075591;28;1027;-63
2024/03/23 02:10:37;;;;;;;;;;;;;;;16.32;47.41;101017.13;5076211;28;1055;-63
2024/03/23 02:13:03;;;;;;;;;;;;;;;15.99;47.20;101016.41;5076216;28;1063;-63
2024/03/23 02:15:29;;;;;;;;;;;;;;;15.81;46.59;101011.31;5072189;28;2664;-63
2024/03/23 02:17:54;;;;;;;;;;;;;;;16.88;47.44;101013.00;5075653;28;1304;-63
2024/03/23 02:20:20;;;;;;;;;;;;;;;16.03;48.16;101009.31;5073035;28;1906;-63
2024/03/23 02:22:45;;;;;;;;;;;;;;;15.79;47.54;101008.00;5056645;28;1158;-64
2024/03/23 02:25:11;;;;;;;;;;;;;;;15.67;46.78;101014.47;5064347;28;1060;-63
2024/03/23 02:27:38;;;;;;;;;;;;;;;15.71;46.67;101017.50;5069836;28;959;-64
2024/03/23 02:30:04;;;;;;;;;;;;;;;16.56;47.54;101013.97;5038059;28;1044;-63
2024/03/23 02:32:30;;;;;;;;;;;;;;;15.85;48.10;101016.03;5061518;28;1076;-63
2024/03/23 02:34:55;;;;;;;;;;;;;;;15.57;47.23;101017.97;5063436;28;1347;-64
2024/03/23 02:37:21;;;;;;;;;;;;;;;16.70;47.23;101020.59;5061262;28;1080;-64
2024/03/23 02:39:46;;;;;;;;;;;;;;;16.75;47.73;101019.81;5056761;28;1902;-61
2024/03/23 02:42:12;;;;;;;;;;;;;;;15.95;48.10;101022.66;5074408;28;1023;-61
2024/03/23 02:44:37;;;;;;;;;;;;;;;15.72;47.53;101008.19;5075824;28;2456;-61
2024/03/23 02:47:03;;;;;;;;;;;;;;;16.89;47.43;101017.44;5073057;28;1391;-61
2024/03/23 02:49:28;;;;;;;;;;;;;;;16.49;48.21;101010.66;5075844;28;1074;-62
2024/03/23 02:51:54;;;;;;;;;;;;;;;15.98;48.16;101012.00;5073382;28;1078;-61
2024/03/23 02:54:19;;;;;;;;;;;;;;;15.79;47.36;101010.72;5075558;28;1106;-62
2024/03/23 02:56:45;;;;;;;;;;;;;;;15.78;46.84;101015.41;5075937;28;1098;-66
2024/03/23 02:59:11;;;;;;;;;;;;;;;16.83;47.32;101011.06;5075452;28;1083;-66
2024/03/23 03:01:36;;;;;;;;;;;;;;;16.03;47.92;101001.06;5075146;28;1925;-65
2024/03/23 03:04:02;;;;;;;;;;;;;;;16.40;48.16;100997.44;5068263;28;1047;-65
2024/03/23 03:06:27;;;;;;;;;;;;;;;16.41;47.95;100999.09;5072785;28;1055;-64
2024/03/23 03:08:53;;;;;;;;;;;;;;;15.97;47.81;100996.63;5075346;28;1047;-65
2024/03/23 03:11:18;;;;;;;;;;;;;;;15.78;47.16;100995.38;5061857;28;1011;-65
2024/03/23 03:13:44;;;;;;;;;;;;;;;17.06;47.13;101001.53;5067102;28;1116;-65
2024/03/23 03:16:10;;;;;;;;;;;;;;;16.20;48.06;100997.31;5064567;28;2698;-63
2024/03/23 03:18:35;;;;;;;;;;;;;;;15.84;47.76;100984.19;5078926;28;1101;-63
2024/03/23 03:21:01;;;;;;;;;;;;;;;17.11;46.87;100989.75;5065469;28;1979;-65
2024/03/23 03:23:27;;;;;;;;;;;;;;;16.14;47.97;100988.22;5079244;28;1111;-65
2024/03/23 03:25:52;;;;;;;;;;;;;;;16.45;48.04;100984.81;5064765;28;1050;-64
2024/03/23 03:28:18;;;;;;;;;;;;;;;16.70;47.61;100989.59;5062309;28;1163;-64
2024/03/23 03:30:43;;;;;;;;;;;;;;;16.12;47.41;100984.09;5076139;28;1151;-65
2024/03/23 03:33:09;;;;;;;;;;;;;;;15.85;47.05;100985.03;5060755;28;1517;-64
2024/03/23 03:35:34;;;;;;;;;;;;;;;16.07;47.11;100988.47;5047268;28;1529;-65
2024/03/23 03:38:00;;;;;;;;;;;;;;;16.91;47.17;100996.84;5045427;28;922;-65
2024/03/23 03:40:25;;;;;;;;;;;;;;;16.06;47.95;100984.09;5050256;28;2035;-65
2024/03/23 03:42:51;;;;;;;;;;;;;;;15.79;47.34;100997.03;5072181;28;1194;-65
2024/03/23 03:45:16;;;;;;;;;;;;;;;15.68;46.56;100996.94;5051165;28;1062;-65
2024/03/23 03:47:42;;;;;;;;;;;;;;;16.71;47.37;100996.75;5076305;28;1023;-65
2024/03/23 03:50:07;;;;;;;;;;;;;;;16.61;47.78;101003.03;5079053;28;1114;-65
2024/03/23 03:52:33;;;;;;;;;;;;;;;16.00;47.99;100992.53;5064982;28;1114;-64
2024/03/23 03:55:02;;;;;;;;;;;;;;;15.74;47.40;100995.88;5071786;28;1043;-65
2024/03/23 03:57:27;;;;;;;;;;;;;;;15.66;46.63;101004.59;5072691;28;1090;-65
2024/03/23 03:59:53;;;;;;;;;;;;;;;16.89;47.22;101000.97;5063378;28;1980;-65
2024/03/23 04:02:18;;;;;;;;;;;;;;;16.16;48.00;101001.69;5052707;28;1124;-65
2024/03/23 04:04:44;;;;;;;;;;;;;;;15.99;47.98;101002.69;5052276;28;916;-63
2024/03/23 04:07:09;;;;;;;;;;;;;;;16.91;47.04;101005.09;5065595;28;1099;-64
2024/03/23 04:09:35;;;;;;;;;;;;;;;16.09;47.96;101001.94;5035631;28;1091;-63
2024/03/23 04:12:01;;;;;;;;;;;;;;;16.88;47.40;101007.50;5064895;28;1124;-63
2024/03/23 04:14:26;;;;;;;;;;;;;;;16.77;47.38;101010.22;5064754;28;1482;-63
2024/03/23 04:16:51;;;;;;;;;;;;;;;16.13;48.03;101004.94;5044284;28;950;-63
2024/03/23 04:19:17;;;;;;;;;;;;;;;15.90;47.12;101004.25;5051347;28;1049;-67
2024/03/23 04:21:42;;;;;;;;;;;;;;;16.93;47.22;101011.13;5044763;28;1976;-67
2024/03/23 04:24:08;;;;;;;;;;;;;;;16.49;47.88;101008.72;5058613;28;1024;-67
2024/03/23 04:26:40;;;;;;;;;;;;;;;16.00;47.57;101009.00;5051759;28;986;-68
2024/03/23 04:29:06;;;;;;;;;;;;;;;15.87;46.75;101018.50;5068208;28;1082;-66
2024/03/23 04:31:34;;;;;;;;;;;;;;;15.66;46.48;101021.03;5070826;28;1007;-67
2024/03/23 04:33:59;;;;;;;;;;;;;;;16.72;47.10;101025.88;5058667;28;1036;-60
2024/03/23 04:36:25;;;;;;;;;;;;;;;16.56;47.91;101028.53;5070195;28;1162;-62
2024/03/23 04:38:52;;;;;;;;;;;;;;;15.97;47.72;101021.31;5045262;28;1079;-61
2024/03/23 04:41:18;;;;;;;;;;;;;;;15.85;46.98;101029.75;5066503;28;1968;-63
2024/03/23 04:43:43;;;;;;;;;;;;;;;15.65;46.57;101030.34;5057246;28;1202;-60
2024/03/23 04:46:09;;;;;;;;;;;;;;;15.91;47.20;101014.16;5078035;28;1213;-66
2024/03/23 04:48:34;;;;;;;;;;;;;;;16.57;47.50;101026.59;5077486;28;1086;-59
2024/03/23 04:51:00;;;;;;;;;;;;;;;15.87;47.62;101018.50;5050987;28;1170;-61
2024/03/23 04:53:28;;;;;;;;;;;;;;;15.71;47.12;101018.34;5074351;28;1158;-60
2024/03/23 04:55:59;;;;;;;;;;;;;;;17.32;46.63;101018.09;5056166;28;1031;-61
2024/03/23 04:58:24;;;;;;;;;;;;;;;16.25;48.02;101016.56;5057804;28;1095;-59
2024/03/23 05:00:53;;;;;;;;;;;;;;;15.90;47.56;101015.22;5069286;28;1905;-61
2024/03/23 05:03:21;;;;;;;;;;;;;;;15.72;46.75;101013.69;5045535;28;1095;-62
2024/03/23 05:05:46;;;;;;;;;;;;;;;15.60;46.42;101013.03;5071453;28;896;-61
2024/03/23 05:08:12;;;;;;;;;;;;;;;15.48;46.19;101018.69;5075291;28;1075;-63
2024/03/23 05:10:38;;;;;;;;;;;;;;;16.48;45.01;101022.72;5057457;28;1115;-60
2024/03/23 05:13:03;;;;;;;;;;;;;;;15.91;46.37;101014.16;5059179;28;1250;-60
2024/03/23 05:15:29;;;;;;;;;;;;;;;15.68;47.05;101013.41;5077349;28;1032;-61
2024/03/23 05:17:55;;;;;;;;;;;;;;;15.37;47.88;101010.38;5063877;28;1118;-59
2024/03/23 05:20:20;;;;;;;;;;;;;;;15.26;48.19;101010.53;5068962;28;1914;-59
2024/03/23 05:22:46;;;;;;;;;;;;;;;15.13;48.72;101017.25;5056826;28;1102;-60
2024/03/23 05:25:13;;;;;;;;;;;;;;;15.61;47.62;101018.25;5065004;28;1178;-60
2024/03/23 05:27:38;;;;;;;;;;;;;;;17.06;44.31;101018.03;5076887;28;1320;-60
2024/03/23 05:30:05;;;;;;;;;;;;;;;16.68;45.01;101025.56;5062001;28;1009;-65
2024/03/23 05:32:31;;;;;;;;;;;;;;;15.89;46.91;101019.06;5072193;28;1058;-64
2024/03/23 05:34:56;;;;;;;;;;;;;;;15.55;47.64;101013.81;5076225;28;1097;-61
2024/03/23 05:37:22;;;;;;;;;;;;;;;15.32;48.25;101009.50;5053316;28;1080;-63
2024/03/23 05:39:49;;;;;;;;;;;;;;;15.11;48.80;101014.78;5069244;28;2773;-58
2024/03/23 05:42:17;;;;;;;;;;;;;;;15.24;48.95;101008.06;5054006;28;1130;-59
2024/03/23 05:44:44;;;;;;;;;;;;;;;16.85;44.99;101013.53;5058329;28;1140;-59
2024/03/23 05:47:09;;;;;;;;;;;;;;;17.42;43.49;101009.03;5075021;28;1086;-61
2024/03/23 05:49:35;;;;;;;;;;;;;;;16.24;46.13;101009.41;5056955;28;1102;-60
2024/03/23 05:52:03;;;;;;;;;;;;;;;15.74;47.46;101006.03;5044915;28;1036;-58
2024/03/23 05:54:29;;;;;;;;;;;;;;;15.49;48.33;101009.41;5059998;28;839;-58
2024/03/23 05:56:55;;;;;;;;;;;;;;;15.32;48.79;101006.75;5071414;28;1075;-60
2024/03/23 05:59:20;;;;;;;;;;;;;;;15.16;48.97;100995.66;5076021;28;1115;-60
2024/03/23 06:01:46;;;;;;;;;;;;;;;16.43;46.13;101013.34;5076090;28;1909;-58
2024/03/23 06:04:13;;;;;;;;;;;;;;;17.47;43.51;101008.19;5076403;28;1050;-61
2024/03/23 06:06:39;;;;;;;;;;;;;;;16.69;45.17;101005.25;5074103;28;904;-63
2024/03/23 06:09:04;;;;;;;;;;;;;;;16.00;46.93;100998.84;5072656;28;2806;-62
2024/03/23 06:11:30;;;;;;;;;;;;;;;15.69;47.83;101003.25;5062113;28;1134;-63
2024/03/23 06:13:56;;;;;;;;;;;;;;;15.46;48.38;100993.44;5075986;28;1054;-63
2024/03/23 06:16:24;;;;;;;;;;;;;;;15.26;49.13;100994.91;5061684;28;1090;-62
2024/03/23 06:18:50;;;;;;;;;;;;;;;16.20;46.71;100992.66;5070332;28;872;-59
2024/03/23 06:21:15;;;;;;;;;;;;;;;17.41;43.90;100993.63;5074108;28;1898;-63
2024/03/23 06:23:41;;;;;;;;;;;;;;;16.65;45.38;100998.66;5064416;28;1035;-61
2024/03/23 06:26:06;;;;;;;;;;;;;;;16.02;47.11;100991.19;5076244;28;1032;-65
2024/03/23 06:28:32;;;;;;;;;;;;;;;15.72;48.09;100992.59;5067670;28;1174;-60
2024/03/23 06:30:57;;;;;;;;;;;;;;;15.48;48.50;100996.78;5058522;28;888;-60
2024/03/23 06:33:23;;;;;;;;;;;;;;;15.30;48.89;100990.56;5047377;28;1083;-60
2024/03/23 06:35:52;;;;;;;;;;;;;;;15.48;48.81;100989.38;5049545;28;1044;-62
2024/03/23 06:38:18;;;;;;;;;;;;;;;17.04;44.87;101001.00;5068084;28;2527;-62
2024/03/23 06:40:47;;;;;;;;;;;;;;;17.48;43.85;100993.38;5068288;28;1902;-63
2024/03/23 06:43:13;;;;;;;;;;;;;;;16.37;46.38;100992.47;5056494;28;913;-63
2024/03/23 06:45:38;;;;;;;;;;;;;;;15.88;47.48;100990.00;5069052;28;1044;-60
2024/03/23 06:48:07;;;;;;;;;;;;;;;15.65;48.42;100991.97;5066803;28;1131;-59
2024/03/23 06:50:33;;;;;;;;;;;;;;;15.46;48.62;100987.97;5063089;28;1151;-56
2024/03/23 06:52:59;;;;;;;;;;;;;;;15.33;49.08;100994.72;5059783;28;1502;-58
2024/03/23 06:55:26;;;;;;;;;;;;;;;16.63;46.15;100989.84;5079441;28;995;-57
2024/03/23 06:57:52;;;;;;;;;;;;;;;17.60;43.66;100989.22;5069647;28;1127;-58
2024/03/23 07:00:17;;;;;;;;;;;;;;;16.49;46.35;100985.94;5076168;28;1902;-60
2024/03/23 07:02:44;;;;;;;;;;;;;;;15.94;47.69;100982.63;5079365;28;1039;-62
2024/03/23 07:05:10;;;;;;;;;;;;;;;15.66;48.34;100981.84;5078384;28;1018;-62
2024/03/23 07:07:36;;;;;;;;;;;;;;;15.44;49.09;100988.22;5041835;28;1028;-60
2024/03/23 07:10:02;;;;;;;;;;;;;;;15.32;49.39;100984.84;5070965;28;2715;-61
2024/03/23 07:12:28;;;;;;;;;;;;;;;15.21;49.47;100981.19;5069575;28;1060;-60
2024/03/23 07:14:53;;;;;;;;;;;;;;;16.29;47.03;100979.25;5065958;28;1187;-61
2024/03/23 07:17:19;;;;;;;;;;;;;;;17.39;44.32;100973.81;5079233;28;1110;-61
2024/03/23 07:19:44;;;;;;;;;;;;;;;16.81;45.56;100976.72;5062788;28;1898;-61
2024/03/23 07:22:10;;;;;;;;;;;;;;;16.06;47.61;100981.34;5079867;28;1106;-62
2024/03/23 07:24:35;;;;;;;;;;;;;;;15.73;48.21;100975.03;5079135;28;996;-62
2024/03/23 07:27:03;;;;;;;;;;;;;;;15.53;48.90;100980.38;5078917;28;1058;-63
2024/03/23 07:29:28;;;;;;;;;;;;;;;15.35;49.22;100982.41;5075898;28;1007;-63
2024/03/23 07:31:54;;;;;;;;;;;;;;;15.19;49.56;100972.38;5069260;28;1127;-62
2024/03/23 07:34:20;;;;;;;;;;;;;;;16.63;46.24;100978.84;5072366;28;992;-60
2024/03/23 07:36:45;;;;;;;;;;;;;;;17.55;43.96;100966.41;5068830;28;1011;-61
2024/03/23 07:39:11;;;;;;;;;;;;;;;16.49;46.38;100967.53;5052579;28;2409;-59
2024/03/23 07:41:36;;;;;;;;;;;;;;;15.95;47.67;100967.81;5060400;28;1917;-60
2024/03/23 07:44:02;;;;;;;;;;;;;;;15.66;48.73;100966.22;5056193;28;1060;-60
2024/03/23 07:46:27;;;;;;;;;;;;;;;15.46;49.00;100968.78;5058991;28;1102;-61
2024/03/23 07:48:53;;;;;;;;;;;;;;;15.33;49.46;100968.16;5074389;28;1126;-61
2024/03/23 07:51:20;;;;;;;;;;;;;;;15.71;48.87;100966.25;5078800;28;1050;-62
2024/03/23 07:53:47;;;;;;;;;;;;;;;17.16;45.08;100964.19;5062270;28;1066;-64
2024/03/23 07:56:15;;;;;;;;;;;;;;;16.99;45.19;100958.94;5058999;28;1028;-61
2024/03/23 07:58:40;;;;;;;;;;;;;;;16.13;47.41;100961.06;5061243;28;977;-62
2024/03/23 08:01:09;;;;;;;;;;;;;;;15.79;48.25;100958.63;5068417;28;1913;-62
2024/03/23 08:03:35;;;;;;;;;;;;;;;15.53;48.81;100956.53;5054593;28;1100;-61
2024/03/23 08:06:10;;;;;;;;;;;;;;;15.51;48.90;100955.13;5055612;28;1202;-61
2024/03/23 08:08:35;;;;;;;;;;;;;;;15.30;49.47;100952.22;5073783;28;2425;-59
2024/03/23 08:11:01;;;;;;;;;;;;;;;15.93;48.20;100953.53;5066761;28;1159;-65
2024/03/23 08:13:26;;;;;;;;;;;;;;;17.22;45.10;100946.59;5063411;28;1019;-65
2024/03/23 08:15:52;;;;;;;;;;;;;;;17.16;44.99;100947.72;5077780;28;1086;-62
2024/03/23 08:18:17;;;;;;;;;;;;;;;16.22;47.22;100956.72;5061923;28;1217;-60
2024/03/23 08:20:43;;;;;;;;;;;;;;;15.87;48.23;100949.94;5070097;28;1906;-62
2024/03/23 08:23:09;;;;;;;;;;;;;;;15.57;48.80;100937.63;5059588;28;1050;-62
2024/03/23 08:25:34;;;;;;;;;;;;;;;15.43;49.29;100944.66;5069892;28;1063;-62
2024/03/23 08:28:00;;;;;;;;;;;;;;;15.30;49.73;100944.00;5077094;28;1015;-63
2024/03/23 08:30:25;;;;;;;;;;;;;;;15.22;49.66;100942.56;5071715;28;1035;-64
2024/03/23 08:32:51;;;;;;;;;;;;;;;16.70;46.21;100946.47;5075514;28;1088;-62
2024/03/23 08:35:16;;;;;;;;;;;;;;;17.53;44.47;100930.09;5077720;28;1027;-62
2024/03/23 08:37:42;;;;;;;;;;;;;;;16.35;47.07;100928.78;5077785;28;1023;-62
2024/03/23 08:40:08;;;;;;;;;;;;;;;15.94;48.01;100928.59;5049835;28;2927;-62
2024/03/23 08:42:34;;;;;;;;;;;;;;;15.84;48.48;100928.53;5063454;28;1135;-61
2024/03/23 08:44:59;;;;;;;;;;;;;;;15.61;48.92;100918.75;5066782;28;1105;-60
2024/03/23 08:47:25;;;;;;;;;;;;;;;15.40;49.42;100922.19;5061524;28;1052;-61
2024/03/23 08:49:50;;;;;;;;;;;;;;;15.81;48.77;100921.66;5059936;28;1048;-61
2024/03/23 08:52:16;;;;;;;;;;;;;;;17.17;45.44;100919.13;5076953;28;1036;-61
2024/03/23 08:54:41;;;;;;;;;;;;;;;17.35;44.76;100918.59;5076492;28;1050;-59
2024/03/23 08:57:07;;;;;;;;;;;;;;;16.37;46.88;100915.63;5056631;28;1135;-60
2024/03/23 08:59:33;;;;;;;;;;;;;;;15.92;48.33;100908.81;5064365;28;1107;-61
2024/03/23 09:01:58;;;;;;;;;;;;;;;15.74;48.71;100905.41;5058687;28;1991;-61
2024/03/23 09:04:24;;;;;;;;;;;;;;;15.54;49.10;100905.28;5063180;28;1130;-60
2024/03/23 09:06:51;;;;;;;;;;;;;;;15.43;49.45;100906.28;5070261;28;1066;-61
2024/03/23 09:09:16;;;;;;;;;;;;;;;15.83;48.66;100905.75;5049263;28;2693;-61
2024/03/23 09:11:42;;;;;;;;;;;;;;;17.21;45.23;100899.06;5067303;28;1114;-61
2024/03/23 09:14:08;;;;;;;;;;;;;;;16.73;46.02;100899.28;5076910;28;1182;-62
2024/03/23 09:16:34;;;;;;;;;;;;;;;16.03;47.99;100894.09;5077109;28;1007;-64
2024/03/23 09:19:00;;;;;;;;;;;;;;;15.80;48.70;100889.03;5065144;28;1016;-65
2024/03/23 09:21:26;;;;;;;;;;;;;;;15.56;49.27;100892.97;5056999;28;1901;-61
2024/03/23 09:23:51;;;;;;;;;;;;;;;15.50;49.20;100885.81;5056501;28;1083;-61
2024/03/23 09:26:17;;;;;;;;;;;;;;;15.56;49.47;100881.19;5067647;28;1091;-62
2024/03/23 09:28:42;;;;;;;;;;;;;;;17.07;45.58;100885.06;5055242;28;1551;-61
2024/03/23 09:31:08;;;;;;;;;;;;;;;17.53;44.35;100866.88;5055978;28;1200;-61
2024/03/23 09:33:34;;;;;;;;;;;;;;;16.47;46.99;100873.69;5076222;28;1048;-60
2024/03/23 09:36:03;;;;;;;;;;;;;;;16.23;47.15;100865.09;5076410;28;1095;-61
2024/03/23 09:38:28;;;;;;;;;;;;;;;15.84;48.37;100863.56;5044968;28;2519;-59
2024/03/23 09:40:54;;;;;;;;;;;;;;;15.69;48.52;100856.03;5077042;28;1965;-60
2024/03/23 09:43:20;;;;;;;;;;;;;;;15.47;49.44;100856.16;5066985;28;1074;-59
2024/03/23 09:45:45;;;;;;;;;;;;;;;15.37;49.85;100854.19;5073585;28;1088;-65
2024/03/23 09:48:11;;;;;;;;;;;;;;;15.84;48.61;100854.50;5076410;28;1047;-61
2024/03/23 09:50:39;;;;;;;;;;;;;;;17.20;45.36;100844.41;5059821;28;1182;-63
2024/03/23 09:53:08;;;;;;;;;;;;;;;17.39;44.81;100839.97;5067298;28;1170;-65
2024/03/23 09:55:35;;;;;;;;;;;;;;;16.40;47.26;100838.25;5052676;28;1011;-63
2024/03/23 09:58:00;;;;;;;;;;;;;;;16.05;48.11;100839.78;5076417;28;1047;-61
2024/03/23 10:00:26;;;;;;;;;;;;;;;15.80;48.64;100835.00;5057802;28;1902;-61
2024/03/23 10:02:51;;;;;;;;;;;;;;;15.59;49.22;100833.25;5067681;28;1102;-64
2024/03/23 10:05:23;;;;;;;;;;;;;;;16.27;47.91;100837.94;5075761;28;1007;-63
2024/03/23 10:07:49;;;;;;;;;;;;;;;17.52;44.73;100826.75;5074346;28;2577;-65
2024/03/23 10:10:15;;;;;;;;;;;;;;;16.57;46.71;100823.47;5067924;28;1075;-60
2024/03/23 10:12:44;;;;;;;;;;;;;;;16.01;48.13;100813.97;5068177;28;1151;-61
2024/03/23 10:15:15;;;;;;;;;;;;;;;15.83;48.98;100812.53;5075829;28;1086;-62
2024/03/23 10:17:41;;;;;;;;;;;;;;;15.59;49.35;100809.38;5055563;28;1051;-63
2024/03/23 10:20:08;;;;;;;;;;;;;;;15.54;49.63;100807.44;5068471;28;1963;-61
2024/03/23 10:22:34;;;;;;;;;;;;;;;17.07;45.98;100801.81;5049081;28;1187;-62
2024/03/23 10:25:07;;;;;;;;;;;;;;;17.07;45.76;100790.84;5063596;28;1136;-59
2024/03/23 10:27:33;;;;;;;;;;;;;;;16.22;47.85;100792.09;5082257;28;1189;-59
2024/03/23 10:29:59;;;;;;;;;;;;;;;15.91;48.53;100792.03;5069519;28;1055;-59
2024/03/23 10:32:25;;;;;;;;;;;;;;;15.67;49.47;100786.09;5050450;28;1126;-60
2024/03/23 10:34:50;;;;;;;;;;;;;;;15.52;49.47;100789.63;5082625;28;1106;-57
2024/03/23 10:37:16;;;;;;;;;;;;;;;15.36;50.11;100781.31;5068787;28;1213;-57
2024/03/23 10:39:42;;;;;;;;;;;;;;;15.28;50.38;100776.34;5047939;28;2680;-59
2024/03/23 10:42:08;;;;;;;;;;;;;;;16.70;46.82;100773.50;5068051;28;1984;-60
2024/03/23 10:44:33;;;;;;;;;;;;;;;17.65;44.46;100756.59;5059151;28;918;-59
2024/03/23 10:46:59;;;;;;;;;;;;;;;16.52;47.02;100763.06;5081750;28;1091;-56
2024/03/23 10:49:26;;;;;;;;;;;;;;;16.00;48.27;100759.41;5068892;28;1055;-56
2024/03/23 10:51:52;;;;;;;;;;;;;;;15.84;49.00;100750.31;5081844;28;1136;-61
2024/03/23 10:54:18;;;;;;;;;;;;;;;15.60;49.56;100748.00;5064950;28;1151;-60
2024/03/23 10:56:43;;;;;;;;;;;;;;;15.47;49.73;100748.47;5048907;28;914;-60
2024/03/23 10:59:09;;;;;;;;;;;;;;;15.32;50.25;100741.84;5058481;28;1099;-59
2024/03/23 11:01:34;;;;;;;;;;;;;;;15.89;48.85;100740.19;5075476;28;1987;-60
2024/03/23 11:04:00;;;;;;;;;;;;;;;17.20;45.45;100737.22;5082113;28;1032;-59
2024/03/23 11:06:35;;;;;;;;;;;;;;;16.95;46.11;100733.41;5069264;28;1105;-58
2024/03/23 11:09:01;;;;;;;;;;;;;;;16.14;47.97;100743.25;5064244;28;2592;-59
2024/03/23 11:11:26;;;;;;;;;;;;;;;15.82;48.77;100728.66;5076741;28;1166;-61
2024/03/23 11:13:52;;;;;;;;;;;;;;;15.66;49.20;100735.94;5064490;28;1215;-58
2024/03/23 11:16:32;;;;;;;;;;;;;;;15.47;49.68;100729.28;5067377;28;1106;-59
2024/03/23 11:19:16;;;;;;;;;;;;;;;15.28;50.31;100728.91;5075331;28;1097;-61
2024/03/23 11:21:54;;;;;;;;;;;;;;;16.49;47.16;100725.19;5074526;28;1909;-63
2024/03/23 11:24:20;;;;;;;;;;;;;;;17.57;44.90;100716.75;5076015;28;1114;-61
2024/03/23 11:26:46;;;;;;;;;;;;;;;16.75;46.33;100718.59;5074141;28;1125;-61
2024/03/23 11:29:12;;;;;;;;;;;;;;;16.19;47.80;100710.34;5062425;28;1067;-61
2024/03/23 11:31:38;;;;;;;;;;;;;;;15.85;48.86;100710.81;5079043;28;1210;-62
2024/03/23 11:34:04;;;;;;;;;;;;;;;15.66;49.26;100700.31;5065605;28;1163;-60
2024/03/23 11:36:30;;;;;;;;;;;;;;;15.50;49.63;100701.34;5059321;28;1043;-60
2024/03/23 11:38:55;;;;;;;;;;;;;;;15.35;50.29;100700.19;5060032;28;2414;-57
2024/03/23 11:41:21;;;;;;;;;;;;;;;15.24;50.70;100706.72;5063140;28;1982;-59
2024/03/23 11:43:46;;;;;;;;;;;;;;;15.69;49.62;100701.69;5056774;28;1060;-59
2024/03/23 11:46:12;;;;;;;;;;;;;;;17.09;45.81;100700.69;5034653;28;1064;-60
2024/03/23 11:48:38;;;;;;;;;;;;;;;17.13;45.66;100692.75;5060545;28;1234;-57
2024/03/23 11:51:04;;;;;;;;;;;;;;;16.19;48.03;100686.47;5071568;28;1127;-58
2024/03/23 11:53:30;;;;;;;;;;;;;;;15.88;48.73;100688.34;5058666;28;1016;-63
2024/03/23 11:55:55;;;;;;;;;;;;;;;15.66;49.24;100685.81;5073244;28;1094;-59
2024/03/23 11:58:24;;;;;;;;;;;;;;;15.47;49.86;100666.28;5059292;28;1036;-60
2024/03/23 12:00:57;;;;;;;;;;;;;;;15.33;50.13;100661.31;5071003;28;1981;-57
2024/03/23 12:03:25;;;;;;;;;;;;;;;15.22;50.73;100659.59;5058470;28;1068;-56
2024/03/23 12:05:54;;;;;;;;;;;;;;;16.66;47.12;100659.00;5067863;28;1004;-58
2024/03/23 12:08:21;;;;;;;;;;;;;;;17.40;44.96;100649.22;5070470;28;2104;-57
2024/03/23 12:10:47;;;;;;;;;;;;;;;16.37;47.69;100654.13;5078449;28;1135;-59
2024/03/23 12:13:17;;;;;;;;;;;;;;;15.91;48.59;100655.72;5078257;28;1024;-57
2024/03/23 12:15:43;;;;;;;;;;;;;;;15.72;49.51;100644.44;5078412;28;1126;-56
2024/03/23 12:18:10;;;;;;;;;;;;;;;15.55;49.73;100643.81;5074376;28;1106;-55
2024/03/23 12:20:35;;;;;;;;;;;;;;;15.34;50.32;100642.94;5068757;28;1898;-58
2024/03/23 12:23:20;;;;;;;;;;;;;;;15.19;50.83;100641.78;5060944;28;1079;-58
2024/03/23 12:25:46;;;;;;;;;;;;;;;16.80;46.85;100631.81;5065564;28;1099;-56
2024/03/23 12:28:12;;;;;;;;;;;;;;;17.43;45.08;100634.06;5058895;28;1508;-59
2024/03/23 12:30:40;;;;;;;;;;;;;;;16.38;47.76;100631.88;5065589;28;1213;-61
2024/03/23 12:33:06;;;;;;;;;;;;;;;15.97;48.92;100625.56;5064446;28;1198;-60
2024/03/23 12:35:31;;;;;;;;;;;;;;;15.72;49.37;100621.66;5045295;28;1048;-60
2024/03/23 12:37:57;;;;;;;;;;;;;;;15.58;49.92;100624.09;5070901;28;2391;-61
2024/03/23 12:40:23;;;;;;;;;;;;;;;15.37;50.21;100621.28;5070532;28;1902;-60
2024/03/23 12:42:48;;;;;;;;;;;;;;;15.50;50.06;100627.34;5064229;28;1134;-60